Main page
METAR-TAF:

METAR-TAF

Airports :

Salgado Filho International Airport

Porto Alegre, Rio Grande do Sul, Brazil

latitude: 30-00S, longitude: 051-11W, elevation: 3 m

Current weather observation

The report was made 23 minutes ago, at 01:00 UTC
Wind 3 kt from the South
Temperature 22°C
Humidity 88%
Pressure 1010 hPa
Visibility 10 km or more
Few clouds at a height of 2000 ft
Scattered clouds at a height of 8000 ft

METAR: SBPA 150100Z 18003KT 9999 FEW020 SCT080 22/20 Q1010

Time: 23:23 (01:23 UTC)

Forecast

The report was made 3 hours and 23 minutes ago, at 22:00 UTC
Forecast valid from 15 at 00 UTC to 15 at 24 UTC
Wind 7 kt from the South
Visibility 10 km or more
Scattered clouds at a height of 3500 ft
Probability 40% :
Temporary
from 15 at 06 UTC to 15 at 10 UTC
Broken clouds at a height of 900 ft

TAF: SBPA 142200Z 1500/1524 19007KT 9999 SCT035 TN18/1508Z TX24/1518Z PROB40 TEMPO 1506/1510 BKN009 RMK PER

Weather observations and forecasts of more than 4000 airports (METAR and TAF reports).

The available stations are represented by yellow and red dots on the map.

Hover mouse over dot to see the name of the station.

Then click to see weather observations and forecasts.

To change the map : click on the green buttons with a black cross to zoom in, on the green button with a dash to zoom out, or on the green arrows for adjacent maps.


METAR-TAF: